Terminal Aerodrome Forecast
Issued by NWS Sterling, VA

Current Version | Previous Version | Graphics & Text | Print | Product List | Glossary On
Versions: 1 2 3 4 5 6 7 8 9 10 11 12 13 14 15 16 17 18 19 20 21 22 23 24
000
FTUS41 KLWX 032340
TAFDCA
TAF
KDCA 032340Z 0400/0424 19005KT P6SM SCT060 BKN100
     FM040200 VRB05KT P6SM SCT060
     FM041200 04006KT P6SM BKN050
     FM042100 08010G17KT P6SM BKN050=

USA.gov is the U.S. government's official web portal to all federal, state and local government web resources and services.